Time;durP1;ratioP1;P1;durP2;ratioP2;P2;SDS_P1;SDS_P2;PMS_P1;PMS_P2;Temp;Humidity;BMP_temperature;BMP_pressure;BME280_temperature;BME280_humidity;BME280_pressure;Samples;Min_cycle;Max_cycle;Signal;HPM_P1;HPM_P2
2023/03/06 00:01:20;;;;;;;;;48.00;38.80;;;;;6.83;59.58;100474.84;5013382;28;45445;-57
2023/03/06 00:03:46;;;;;;;;;41.50;37.50;;;;;6.85;59.42;100480.13;5013663;28;45393;-57
2023/03/06 00:06:11;;;;;;;;;44.00;37.25;;;;;6.83;59.80;100477.56;4989912;28;45459;-59
2023/03/06 00:08:37;;;;;;;;;44.75;35.75;;;;;6.78;59.05;100471.88;5011945;28;48183;-57
2023/03/06 00:11:02;;;;;;;;;46.00;40.50;;;;;6.81;59.47;100473.34;5013447;28;45409;-57
2023/03/06 00:13:29;;;;;;;;;44.50;36.00;;;;;6.81;59.43;100471.47;5012806;28;45295;-58
2023/03/06 00:15:57;;;;;;;;;48.00;41.75;;;;;6.82;59.21;100475.06;5013486;28;45359;-58
2023/03/06 00:18:22;;;;;;;;;34.60;33.00;;;;;6.85;58.84;100478.25;5011641;28;45512;-57
2023/03/06 00:20:48;;;;;;;;;47.25;37.00;;;;;6.84;59.04;100468.34;5011960;28;45551;-58
2023/03/06 00:23:13;;;;;;;;;50.75;38.25;;;;;6.84;58.61;100468.34;5013404;28;45430;-57
2023/03/06 00:25:45;;;;;;;;;39.25;34.00;;;;;6.53;58.49;100433.19;5017194;28;45450;-57
2023/03/06 00:28:13;;;;;;;;;40.80;32.20;;;;;6.73;58.04;100466.16;5031667;28;47500;-57
2023/03/06 00:30:39;;;;;;;;;30.00;24.60;;;;;6.74;57.45;100467.84;5032089;28;45406;-59
2023/03/06 00:33:04;;;;;;;;;43.25;35.00;;;;;6.65;58.00;100453.47;5015379;28;45454;-59
2023/03/06 00:35:30;;;;;;;;;43.25;35.25;;;;;6.59;57.84;100446.91;5032117;28;45638;-58
2023/03/06 00:37:58;;;;;;;;;36.25;29.50;;;;;6.63;58.29;100444.66;5016532;28;45567;-57
2023/03/06 00:40:24;;;;;;;;;34.00;31.60;;;;;6.68;58.39;100447.63;5016330;28;45602;-57
2023/03/06 00:42:49;;;;;;;;;34.50;33.50;;;;;6.72;57.47;100459.00;4998632;28;45837;-58
2023/03/06 00:45:15;;;;;;;;;40.25;34.00;;;;;6.71;57.88;100439.06;5016733;28;45650;-58
2023/03/06 00:47:40;;;;;;;;;48.00;36.00;;;;;6.32;58.16;100370.28;5016341;28;46393;-60
2023/03/06 00:50:06;;;;;;;;;42.50;37.50;;;;;6.79;57.78;100443.56;5031805;28;45510;-57
2023/03/06 00:52:32;;;;;;;;;32.60;24.60;;;;;6.75;58.10;100437.63;5016662;28;45600;-58
2023/03/06 00:54:57;;;;;;;;;44.25;34.00;;;;;6.79;58.12;100440.81;5015667;28;45495;-57
2023/03/06 00:57:23;;;;;;;;;38.75;31.75;;;;;6.73;57.59;100422.50;4998408;28;47000;-58
2023/03/06 00:59:49;;;;;;;;;33.75;32.50;;;;;6.49;57.32;100379.06;5016076;28;45302;-58
2023/03/06 01:02:15;;;;;;;;;41.50;32.50;;;;;6.82;57.21;100439.59;5016662;28;45333;-57
2023/03/06 01:04:40;;;;;;;;;36.75;32.75;;;;;6.81;57.08;100446.06;5015117;28;45488;-58
2023/03/06 01:07:06;;;;;;;;;40.25;31.00;;;;;6.79;57.16;100446.28;5014293;28;46019;-60
2023/03/06 01:09:31;;;;;;;;;52.00;35.75;;;;;6.70;57.38;100436.50;4991830;28;45935;-57
2023/03/06 01:11:57;;;;;;;;;42.75;37.25;;;;;6.42;57.66;100396.38;5014876;28;45440;-59
2023/03/06 01:14:23;;;;;;;;;37.25;31.25;;;;;6.73;57.93;100444.31;4997268;28;45358;-59
2023/03/06 01:16:48;;;;;;;;;42.75;35.25;;;;;6.69;57.73;100448.47;5014700;28;46067;-58
2023/03/06 01:19:17;;;;;;;;;40.50;32.75;;;;;6.62;57.89;100449.25;5014201;28;45398;-57
2023/03/06 01:21:42;;;;;;;;;33.60;31.20;;;;;6.66;57.92;100440.69;5015049;28;45450;-57
2023/03/06 01:24:08;;;;;;;;;37.25;29.75;;;;;6.34;58.50;100398.19;5015080;28;45400;-57
2023/03/06 01:26:33;;;;;;;;;38.25;33.50;;;;;6.65;58.92;100434.38;5013547;28;45498;-56
2023/03/06 01:29:00;;;;;;;;;34.00;31.00;;;;;6.51;58.79;100415.16;5013426;28;45531;-57
2023/03/06 01:31:25;;;;;;;;;38.80;34.20;;;;;6.59;59.38;100437.88;5013497;28;45434;-57
2023/03/06 01:33:51;;;;;;;;;45.25;37.50;;;;;6.55;59.62;100436.59;5015215;28;45326;-57
2023/03/06 01:36:16;;;;;;;;;38.25;37.25;;;;;6.55;59.25;100428.41;5014736;28;45417;-57
2023/03/06 01:38:42;;;;;;;;;34.75;30.75;;;;;6.52;59.42;100432.38;5014657;28;45495;-58
2023/03/06 01:41:09;;;;;;;;;42.75;31.25;;;;;6.42;58.79;100416.31;5029652;28;45361;-57
2023/03/06 01:43:40;;;;;;;;;39.00;32.00;;;;;6.48;59.02;100428.31;5013587;28;45334;-58
2023/03/06 01:46:27;;;;;;;;;42.40;35.60;;;;;6.43;58.84;100422.59;5013969;28;45851;-58
2023/03/06 01:48:54;;;;;;;;;35.00;31.40;;;;;5.88;58.31;100341.22;5014457;28;45327;-58
2023/03/06 01:51:21;;;;;;;;;36.20;33.00;;;;;6.32;58.24;100416.63;5014984;28;45370;-59
2023/03/06 01:53:47;;;;;;;;;38.00;29.20;;;;;6.23;57.95;100421.34;5013172;28;45490;-58
2023/03/06 01:56:13;;;;;;;;;31.50;26.00;;;;;5.93;56.84;100366.84;5013172;28;46159;-58
2023/03/06 01:58:39;;;;;;;;;43.50;29.50;;;;;6.19;56.26;100416.47;5013359;28;45432;-59
2023/03/06 02:01:04;;;;;;;;;39.80;33.20;;;;;5.95;56.63;100393.91;5013581;28;45405;-58
2023/03/06 02:03:30;;;;;;;;;34.75;27.00;;;;;5.87;57.22;100383.94;5014475;28;45419;-57
2023/03/06 02:05:55;;;;;;;;;34.25;30.00;;;;;6.06;57.30;100407.09;4996675;28;45698;-58
2023/03/06 02:08:21;;;;;;;;;37.50;31.75;;;;;6.12;56.79;100415.53;5012223;28;45405;-57
2023/03/06 02:11:25;;;;;;;;;26.25;23.50;;;;;6.11;56.82;100406.50;4995877;28;45478;-58
2023/03/06 02:13:51;;;;;;;;;37.20;29.60;;;;;5.96;56.81;100371.06;4908187;28;1304825;-59
2023/03/06 02:16:17;;;;;;;;;35.20;28.20;;;;;6.17;56.97;100407.63;4953482;28;45473;-58
2023/03/06 02:18:42;;;;;;;;;34.50;30.00;;;;;5.94;56.53;100360.34;4971050;28;45424;-59
2023/03/06 02:21:09;;;;;;;;;39.00;31.75;;;;;6.16;57.03;100390.44;5014010;28;45323;-57
2023/03/06 02:24:20;;;;;;;;;38.80;29.80;;;;;6.16;56.93;100395.03;5015003;28;45377;-58
2023/03/06 02:26:46;;;;;;;;;34.40;29.00;;;;;6.17;58.07;100388.53;4977640;28;45886;-58
2023/03/06 02:29:11;;;;;;;;;32.50;28.75;;;;;6.20;57.07;100386.28;5013668;28;45499;-58
2023/03/06 02:31:37;;;;;;;;;34.50;32.00;;;;;6.05;57.48;100345.47;4997635;28;45458;-59
2023/03/06 02:34:06;;;;;;;;;35.00;30.75;;;;;6.28;57.14;100382.59;5015448;28;45298;-59
2023/03/06 02:36:34;;;;;;;;;33.40;31.40;;;;;6.03;57.50;100342.06;5013572;28;45377;-57
2023/03/06 02:38:59;;;;;;;;;38.80;37.00;;;;;6.27;57.72;100371.88;5013582;28;45421;-57
2023/03/06 02:41:25;;;;;;;;;42.75;32.50;;;;;6.24;57.28;100367.66;5010306;28;45444;-58
2023/03/06 02:43:50;;;;;;;;;34.25;31.00;;;;;6.02;57.18;100339.50;4995112;28;45537;-59
2023/03/06 02:46:16;;;;;;;;;40.50;26.00;;;;;6.20;56.73;100352.75;4994294;28;45530;-58
2023/03/06 02:48:41;;;;;;;;;35.00;25.00;;;;;6.06;56.79;100328.06;4994487;28;45497;-61
2023/03/06 02:51:07;;;;;;;;;38.50;27.00;;;;;6.26;56.76;100356.56;4995662;28;45520;-57
2023/03/06 02:53:32;;;;;;;;;34.50;28.50;;;;;6.26;56.32;100362.88;4993683;28;45636;-58
2023/03/06 02:55:58;;;;;;;;;46.50;36.75;;;;;6.24;56.91;100348.56;5009587;28;48139;-57
2023/03/06 02:58:23;;;;;;;;;36.25;32.25;;;;;6.13;56.73;100339.03;5009566;28;45443;-58
2023/03/06 03:00:49;;;;;;;;;41.25;34.50;;;;;6.27;56.89;100345.47;4995113;28;45315;-61
2023/03/06 03:03:14;;;;;;;;;35.50;27.75;;;;;6.26;56.48;100351.13;5010150;28;45322;-59
2023/03/06 03:05:40;;;;;;;;;29.50;24.00;;;;;6.26;56.35;100351.97;4994337;28;46680;-56
2023/03/06 03:08:05;;;;;;;;;39.25;29.50;;;;;6.14;56.33;100326.25;4994514;28;45315;-56
2023/03/06 03:10:31;;;;;;;;;36.25;28.00;;;;;5.98;55.67;100300.91;4994606;28;45477;-58
2023/03/06 03:12:57;;;;;;;;;32.50;28.25;;;;;6.23;55.79;100338.72;4994640;28;45528;-59
2023/03/06 03:15:23;;;;;;;;;37.50;28.00;;;;;6.03;55.27;100301.19;4992932;28;45722;-60
2023/03/06 03:17:48;;;;;;;;;28.00;26.25;;;;;6.24;55.99;100333.06;4992850;28;45411;-60
2023/03/06 03:20:15;;;;;;;;;33.50;26.25;;;;;6.21;55.71;100338.94;5009718;28;45549;-59
2023/03/06 03:22:41;;;;;;;;;24.20;23.80;;;;;6.18;55.43;100338.44;5009418;28;45402;-57
2023/03/06 03:25:07;;;;;;;;;37.25;32.50;;;;;6.12;56.13;100339.25;4993988;28;46383;-58
2023/03/06 03:27:32;;;;;;;;;38.00;32.20;;;;;6.10;55.66;100331.25;4994470;28;45420;-58
2023/03/06 03:29:58;;;;;;;;;37.75;28.50;;;;;6.07;55.77;100335.19;4993859;28;45364;-58
2023/03/06 03:32:24;;;;;;;;;31.00;25.75;;;;;6.07;55.61;100335.19;4993352;28;45134;-56
2023/03/06 03:34:49;;;;;;;;;28.00;26.75;;;;;6.15;56.10;100338.84;4993850;28;46504;-58
2023/03/06 03:37:15;;;;;;;;;31.00;29.00;;;;;6.13;56.73;100339.03;4994115;28;45262;-59
2023/03/06 03:39:40;;;;;;;;;43.75;31.25;;;;;6.10;56.96;100332.06;4994092;28;45129;-59
2023/03/06 03:42:06;;;;;;;;;39.00;32.75;;;;;6.09;56.47;100324.13;5012812;28;45336;-60
2023/03/06 03:44:31;;;;;;;;;35.50;31.25;;;;;6.06;57.41;100324.50;5013904;28;46057;-58
2023/03/06 03:46:57;;;;;;;;;34.00;30.25;;;;;6.04;57.16;100321.13;5013288;28;45306;-59
2023/03/06 03:49:22;;;;;;;;;51.75;38.00;;;;;5.94;58.43;100322.22;5013881;28;45371;-58
2023/03/06 03:51:48;;;;;;;;;44.00;34.00;;;;;5.98;57.56;100317.25;5014287;28;45370;-57
2023/03/06 03:54:13;;;;;;;;;44.25;38.25;;;;;5.98;57.90;100320.00;5011957;28;47352;-61
2023/03/06 03:56:39;;;;;;;;;42.00;35.25;;;;;6.04;58.38;100321.94;5013792;28;45431;-58
2023/03/06 03:59:05;;;;;;;;;43.60;33.80;;;;;6.05;58.12;100328.25;5014884;28;45260;-57
2023/03/06 04:01:31;;;;;;;;;44.50;33.75;;;;;5.99;58.42;100312.63;5017984;28;45290;-57
2023/03/06 04:03:56;;;;;;;;;41.75;33.50;;;;;6.05;58.67;100322.81;5015579;28;46580;-59
2023/03/06 04:06:22;;;;;;;;;39.75;34.25;;;;;6.04;57.98;100319.22;5017476;28;45407;-57
2023/03/06 04:08:47;;;;;;;;;43.00;37.75;;;;;5.98;58.25;100311.81;4997964;28;47237;-57
2023/03/06 04:11:13;;;;;;;;;39.50;32.25;;;;;5.96;58.27;100312.00;5011645;28;45632;-58
2023/03/06 04:13:38;;;;;;;;;42.00;39.75;;;;;5.97;59.25;100313.69;5012583;28;46247;-58
2023/03/06 04:16:04;;;;;;;;;49.25;40.00;;;;;5.97;58.79;100318.28;5017055;28;45303;-58
2023/03/06 04:18:30;;;;;;;;;50.25;36.25;;;;;5.92;58.77;100310.69;5017272;28;45428;-58
2023/03/06 04:20:55;;;;;;;;;44.50;39.50;;;;;5.90;58.74;100301.00;5017171;28;45376;-57
2023/03/06 04:23:23;;;;;;;;;43.00;34.75;;;;;5.73;58.72;100270.44;5015507;28;46575;-57
2023/03/06 04:25:48;;;;;;;;;48.40;33.40;;;;;5.96;59.04;100302.97;5015579;28;45469;-57
2023/03/06 04:28:14;;;;;;;;;40.25;35.00;;;;;5.91;59.41;100297.25;4966753;28;45508;-58
2023/03/06 04:30:40;;;;;;;;;40.25;37.00;;;;;5.93;59.42;100295.19;5021731;28;45394;-58
2023/03/06 04:33:05;;;;;;;;;37.75;35.00;;;;;5.84;59.68;100287.13;5016867;28;46111;-59
2023/03/06 04:35:31;;;;;;;;;43.75;36.50;;;;;5.92;59.09;100293.50;5016648;28;45433;-59
2023/03/06 04:37:56;;;;;;;;;44.75;37.00;;;;;5.95;59.37;100298.56;5015441;28;45470;-62
2023/03/06 04:40:27;;;;;;;;;41.00;35.50;;;;;6.01;59.13;100305.09;5016769;28;45339;-55
2023/03/06 04:42:54;;;;;;;;;48.80;37.80;;;;;6.02;59.78;100295.94;5015546;28;47309;-58
2023/03/06 04:45:19;;;;;;;;;44.40;37.80;;;;;6.02;59.17;100295.94;5024276;28;45560;-56
2023/03/06 04:47:45;;;;;;;;;41.25;33.00;;;;;5.93;58.90;100289.75;5027079;28;45326;-58
2023/03/06 04:50:11;;;;;;;;;38.25;34.25;;;;;5.91;58.80;100289.94;5034263;28;45329;-57
2023/03/06 04:52:36;;;;;;;;;42.50;33.75;;;;;5.92;58.76;100288.88;5035046;28;45459;-56
2023/03/06 04:55:07;;;;;;;;;41.50;34.50;;;;;5.98;58.73;100295.47;5035346;28;45402;-58
2023/03/06 04:57:36;;;;;;;;;46.20;35.20;;;;;5.92;59.12;100301.69;5036434;28;45388;-56
2023/03/06 05:00:03;;;;;;;;;39.40;32.80;;;;;5.86;58.77;100286.94;5036686;28;45619;-58
2023/03/06 05:02:29;;;;;;;;;41.00;31.80;;;;;5.56;58.96;100238.00;5034857;28;45365;-57
2023/03/06 05:04:54;;;;;;;;;36.00;30.00;;;;;5.91;59.16;100305.41;5036305;28;45236;-57
2023/03/06 05:07:20;;;;;;;;;37.25;28.75;;;;;5.91;58.61;100295.38;5036448;28;45310;-54
2023/03/06 05:09:45;;;;;;;;;40.00;34.25;;;;;5.62;58.81;100256.31;5036376;28;45223;-56
2023/03/06 05:12:11;;;;;;;;;42.00;36.50;;;;;5.89;59.46;100292.00;5032072;28;45159;-57
2023/03/06 05:14:36;;;;;;;;;16.00;10.75;;;;;5.83;58.91;100288.16;5002608;28;45423;-56
2023/03/06 05:17:02;;;;;;;;;44.25;29.75;;;;;5.82;58.99;100285.66;5015038;28;45327;-57
2023/03/06 05:19:27;;;;;;;;;40.75;35.50;;;;;5.77;60.05;100288.09;5015449;28;45315;-55
2023/03/06 05:21:55;;;;;;;;;50.50;37.50;;;;;5.55;60.00;100252.66;5014493;28;46463;-56
2023/03/06 05:24:21;;;;;;;;;37.80;33.60;;;;;5.81;59.69;100297.56;5015707;28;45508;-56
2023/03/06 05:26:46;;;;;;;;;37.75;30.50;;;;;5.66;60.50;100286.72;5016017;28;45468;-57
2023/03/06 05:29:12;;;;;;;;;49.50;36.75;;;;;5.72;60.49;100296.84;5016322;28;45512;-55
2023/03/06 05:31:37;;;;;;;;;38.50;34.00;;;;;5.54;60.14;100272.72;5014499;28;46072;-57
2023/03/06 05:34:03;;;;;;;;;42.50;32.25;;;;;5.65;59.93;100279.59;5014690;28;45355;-57
2023/03/06 05:36:28;;;;;;;;;39.00;33.25;;;;;5.70;59.65;100286.13;5015853;28;45386;-54
2023/03/06 05:38:54;;;;;;;;;41.50;35.50;;;;;5.72;60.17;100279.66;5016191;28;45643;-52
2023/03/06 05:41:20;;;;;;;;;49.50;37.50;;;;;5.73;60.54;100284.91;5015560;28;46587;-56
2023/03/06 05:43:46;;;;;;;;;33.00;29.00;;;;;5.43;60.12;100244.97;5015625;28;45576;-56
2023/03/06 05:46:11;;;;;;;;;49.25;35.25;;;;;5.60;60.08;100282.03;5014789;28;45454;-56
2023/03/06 05:48:37;;;;;;;;;43.00;33.25;;;;;5.51;60.88;100273.94;5015589;28;45362;-57
2023/03/06 05:51:02;;;;;;;;;41.75;36.00;;;;;5.43;60.79;100246.84;5015346;28;45417;-57
2023/03/06 05:53:28;;;;;;;;;37.25;31.00;;;;;5.59;59.46;100269.44;5015938;28;45429;-56
2023/03/06 05:56:01;;;;;;;;;33.25;29.50;;;;;5.70;59.22;100280.69;5015381;28;45573;-56
2023/03/06 05:58:27;;;;;;;;;42.00;37.25;;;;;5.57;59.06;100247.84;5014834;28;45377;-57
2023/03/06 06:00:53;;;;;;;;;31.20;27.60;;;;;5.69;59.04;100262.66;5015106;28;45325;-55
2023/03/06 06:03:18;;;;;;;;;31.75;22.25;;;;;5.47;59.31;100239.13;4997427;28;45486;-53
2023/03/06 06:05:44;;;;;;;;;38.25;30.00;;;;;5.74;58.45;100263.94;5015603;28;45424;-57
2023/03/06 06:08:09;;;;;;;;;28.50;28.00;;;;;5.78;58.90;100257.09;5015562;28;45640;-55
2023/03/06 06:10:35;;;;;;;;;39.00;31.00;;;;;5.69;58.28;100230.00;5015441;28;46167;-54
2023/03/06 06:13:00;;;;;;;;;39.75;32.75;;;;;5.60;57.72;100212.06;5013688;28;45577;-57
2023/03/06 06:15:27;;;;;;;;;36.50;31.50;;;;;5.34;57.88;100179.94;4997785;28;45372;-57
2023/03/06 06:17:54;;;;;;;;;43.20;31.60;;;;;5.78;58.39;100248.94;5013898;28;45636;-56
2023/03/06 06:20:20;;;;;;;;;35.40;29.40;;;;;5.57;58.03;100196.94;5014034;28;46259;-57
2023/03/06 06:22:45;;;;;;;;;40.25;31.00;;;;;5.77;58.86;100222.72;5013973;28;45531;-56
2023/03/06 06:25:11;;;;;;;;;37.25;31.50;;;;;5.83;58.87;100235.56;5030487;28;45322;-57
2023/03/06 06:27:37;;;;;;;;;38.50;33.75;;;;;5.84;58.27;100234.53;5014020;28;45588;-56
2023/03/06 06:30:03;;;;;;;;;41.25;34.25;;;;;5.87;58.43;100242.31;5013519;28;47501;-56
2023/03/06 06:32:29;;;;;;;;;35.60;31.40;;;;;5.84;58.42;100254.44;5013528;28;45439;-56
2023/03/06 06:34:54;;;;;;;;;38.25;26.25;;;;;5.86;58.69;100256.16;5013555;28;45399;-53
2023/03/06 06:37:20;;;;;;;;;45.25;33.75;;;;;5.46;57.66;100197.47;5015511;28;45527;-55
2023/03/06 06:39:45;;;;;;;;;41.75;33.75;;;;;5.82;58.10;100256.50;5015537;28;45703;-55
2023/03/06 06:42:11;;;;;;;;;50.75;31.50;;;;;5.72;58.04;100247.81;5013383;28;45583;-56
2023/03/06 06:44:37;;;;;;;;;31.50;24.75;;;;;5.81;58.73;100263.00;5013852;28;45414;-56
2023/03/06 06:47:03;;;;;;;;;36.50;30.25;;;;;5.78;58.45;100257.09;5013552;28;45642;-57
2023/03/06 06:49:29;;;;;;;;;33.40;30.20;;;;;5.75;58.49;100263.78;5014770;28;46441;-55
2023/03/06 06:51:54;;;;;;;;;32.75;26.75;;;;;5.78;58.27;100271.56;5014801;28;45226;-56
2023/03/06 06:54:21;;;;;;;;;29.00;25.25;;;;;5.80;58.38;100282.25;5015165;28;45203;-56
2023/03/06 06:56:46;;;;;;;;;33.20;24.80;;;;;5.79;58.46;100281.44;5005788;28;45375;-57
2023/03/06 06:59:12;;;;;;;;;35.00;26.50;;;;;5.74;58.60;100280.28;4995955;28;45695;-57
2023/03/06 07:01:37;;;;;;;;;37.00;32.50;;;;;5.74;58.44;100283.88;5012518;28;45341;-57
2023/03/06 07:04:03;;;;;;;;;34.75;28.50;;;;;5.36;58.80;100245.91;5014773;28;45288;-55
2023/03/06 07:06:28;;;;;;;;;34.75;27.50;;;;;5.57;58.71;100265.00;5014756;28;45393;-56
2023/03/06 07:08:54;;;;;;;;;35.75;29.50;;;;;5.55;58.23;100277.16;5014474;28;45941;-56
2023/03/06 07:11:19;;;;;;;;;34.00;32.25;;;;;5.52;58.60;100269.34;5012869;28;45525;-53
2023/03/06 07:13:45;;;;;;;;;39.25;29.00;;;;;5.59;59.11;100277.63;5013203;28;45395;-55
2023/03/06 07:16:11;;;;;;;;;33.25;26.00;;;;;5.59;59.15;100281.16;5014691;28;45339;-55
2023/03/06 07:18:36;;;;;;;;;35.25;30.25;;;;;5.50;58.56;100268.72;5013998;28;46426;-57
2023/03/06 07:21:02;;;;;;;;;44.75;31.75;;;;;5.60;59.47;100284.75;5014642;28;45420;-57
2023/03/06 07:23:29;;;;;;;;;45.25;28.00;;;;;5.66;58.35;100281.28;5012863;28;45329;-57
2023/03/06 07:25:54;;;;;;;;;36.25;31.75;;;;;5.64;58.80;100276.00;5014371;28;45609;-54
2023/03/06 07:28:20;;;;;;;;;35.25;29.25;;;;;5.63;58.30;100278.91;5013792;28;46167;-60
2023/03/06 07:30:45;;;;;;;;;34.25;30.75;;;;;5.70;58.81;100282.56;5014185;28;45484;-56
2023/03/06 07:33:11;;;;;;;;;38.25;30.00;;;;;5.69;58.85;100281.72;5012711;28;45331;-57
2023/03/06 07:35:36;;;;;;;;;46.25;39.00;;;;;5.72;58.69;100282.38;5029146;28;45393;-57
2023/03/06 07:38:02;;;;;;;;;39.00;32.50;;;;;5.72;58.59;100288.69;5012668;28;46993;-56
2023/03/06 07:40:27;;;;;;;;;32.00;29.50;;;;;5.59;59.06;100264.00;5014371;28;45318;-58
2023/03/06 07:42:54;;;;;;;;;35.25;28.25;;;;;5.64;58.47;100276.00;5013684;28;45275;-55
2023/03/06 07:45:20;;;;;;;;;27.60;25.60;;;;;5.55;58.98;100258.09;5014186;28;45450;-56
2023/03/06 07:47:46;;;;;;;;;34.20;29.40;;;;;5.25;58.50;100203.69;5012251;28;47252;-57
2023/03/06 07:50:11;;;;;;;;;33.75;27.25;;;;;5.75;58.65;100279.25;5014323;28;45606;-55
2023/03/06 07:52:37;;;;;;;;;35.75;29.00;;;;;5.75;59.27;100277.38;5012487;28;45451;-57
2023/03/06 07:55:02;;;;;;;;;31.50;25.75;;;;;5.67;58.70;100285.69;5014465;28;45416;-61
2023/03/06 07:57:28;;;;;;;;;32.75;28.75;;;;;5.75;59.60;100280.09;5012171;28;45479;-61
2023/03/06 07:59:54;;;;;;;;;25.25;23.25;;;;;5.68;60.03;100273.75;5011977;28;45582;-61
2023/03/06 08:02:19;;;;;;;;;42.25;30.50;;;;;5.75;59.37;100266.50;5013962;28;45338;-61
2023/03/06 08:04:50;;;;;;;;;31.00;27.25;;;;;5.92;58.49;100279.88;5012559;28;45284;-61
2023/03/06 08:07:16;;;;;;;;;36.00;28.40;;;;;5.98;58.58;100281.84;5013157;28;45560;-63
2023/03/06 08:09:42;;;;;;;;;35.50;32.00;;;;;5.94;58.63;100273.19;5013738;28;45511;-61
2023/03/06 08:12:07;;;;;;;;;28.50;22.50;;;;;5.72;59.39;100258.72;5012256;28;45495;-60
2023/03/06 08:14:33;;;;;;;;;28.00;23.75;;;;;5.87;59.45;100282.34;5013880;28;45427;-59
2023/03/06 08:16:59;;;;;;;;;38.20;29.00;;;;;5.83;59.12;100282.72;5011766;28;45831;-60
2023/03/06 08:19:24;;;;;;;;;37.50;28.75;;;;;5.74;59.69;100278.44;5013626;28;45338;-60
2023/03/06 08:21:50;;;;;;;;;30.00;27.75;;;;;5.69;60.45;100279.00;5012396;28;45538;-60
2023/03/06 08:24:17;;;;;;;;;31.00;25.75;;;;;5.76;59.95;100289.97;5013717;28;45275;-59
2023/03/06 08:26:43;;;;;;;;;29.00;26.60;;;;;5.82;59.62;100285.66;5012206;28;46590;-60
2023/03/06 08:29:09;;;;;;;;;32.20;29.20;;;;;5.58;60.19;100238.66;5012163;28;45361;-60
2023/03/06 08:31:36;;;;;;;;;39.25;32.50;;;;;5.69;59.33;100254.50;5028854;28;45325;-61
2023/03/06 08:34:06;;;;;;;;;27.20;24.00;;;;;5.72;59.56;100257.88;5014084;28;45285;-61
2023/03/06 08:36:31;;;;;;;;;32.60;27.60;;;;;5.98;59.62;100298.19;5011965;28;46652;-60
2023/03/06 08:38:57;;;;;;;;;31.25;26.00;;;;;5.95;59.75;100293.97;4995416;28;45526;-60
2023/03/06 08:41:22;;;;;;;;;31.50;29.25;;;;;6.03;59.46;100303.09;4999416;28;45544;-61
2023/03/06 08:43:48;;;;;;;;;42.00;34.75;;;;;6.05;59.71;100301.88;5011323;28;45330;-61
2023/03/06 08:46:14;;;;;;;;;30.50;28.25;;;;;5.60;59.39;100250.19;4997023;28;46234;-61
2023/03/06 08:48:40;;;;;;;;;33.75;30.25;;;;;5.93;60.41;100308.81;5012437;28;45338;-61
2023/03/06 08:51:07;;;;;;;;;32.50;27.25;;;;;6.03;60.26;100311.25;5016198;28;45419;-61
2023/03/06 08:53:33;;;;;;;;;32.40;28.00;;;;;6.09;59.78;100314.03;5017101;28;45458;-62
2023/03/06 08:55:58;;;;;;;;;36.75;28.50;;;;;6.08;59.05;100304.19;5015409;28;45970;-62
2023/03/06 08:58:24;;;;;;;;;38.50;34.25;;;;;6.13;59.17;100309.06;5016569;28;45415;-61
2023/03/06 09:00:50;;;;;;;;;34.25;30.75;;;;;6.12;59.97;100310.09;5016535;28;45300;-60
2023/03/06 09:03:16;;;;;;;;;35.80;27.40;;;;;5.96;59.53;100275.72;5016434;28;45284;-53
2023/03/06 09:05:42;;;;;;;;;32.75;28.00;;;;;6.20;59.59;100288.16;5016869;28;45662;-62
2023/03/06 09:08:07;;;;;;;;;32.50;27.25;;;;;6.43;59.47;100314.41;5016097;28;45382;-60
2023/03/06 09:10:33;;;;;;;;;31.00;27.50;;;;;6.55;59.31;100313.88;5015566;28;45419;-59
2023/03/06 09:12:58;;;;;;;;;37.00;28.50;;;;;6.58;58.68;100314.34;5015144;28;45355;-61
2023/03/06 09:15:24;;;;;;;;;34.50;30.25;;;;;6.61;59.12;100318.53;5016722;28;46191;-60
2023/03/06 09:17:50;;;;;;;;;34.50;22.75;;;;;6.62;58.77;100312.88;5015185;28;45228;-58
2023/03/06 09:20:16;;;;;;;;;29.80;25.80;;;;;6.60;58.56;100304.06;5015183;28;45284;-60
2023/03/06 09:22:41;;;;;;;;;34.50;28.00;;;;;6.78;58.72;100313.66;4998798;28;45617;-58
2023/03/06 09:25:08;;;;;;;;;31.75;26.25;;;;;6.30;58.26;100244.22;5016410;28;45397;-60
2023/03/06 09:27:33;;;;;;;;;39.40;28.20;;;;;6.81;58.28;100313.25;5014811;28;45327;-60
2023/03/06 09:29:59;;;;;;;;;30.50;27.75;;;;;6.90;57.91;100324.88;5016026;28;45298;-58
2023/03/06 09:32:25;;;;;;;;;33.50;27.50;;;;;6.94;57.68;100333.50;4998099;28;45717;-61
2023/03/06 09:34:51;;;;;;;;;33.25;26.00;;;;;6.91;58.19;100310.19;5012139;28;45452;-61
2023/03/06 09:37:17;;;;;;;;;22.25;21.75;;;;;6.91;58.18;100327.41;5015056;28;45322;-60
2023/03/06 09:39:43;;;;;;;;;37.00;27.80;;;;;6.80;58.34;100324.34;5014594;28;45445;-60
2023/03/06 09:42:13;;;;;;;;;40.75;32.50;;;;;6.71;58.40;100293.63;5010407;28;45471;-61
2023/03/06 09:44:40;;;;;;;;;31.60;28.40;;;;;6.98;58.36;100321.97;4995786;28;45410;-62
2023/03/06 09:47:21;;;;;;;;;37.25;31.00;;;;;7.09;58.00;100312.41;5008922;28;45516;-61
2023/03/06 09:50:07;;;;;;;;;41.20;31.40;;;;;7.24;57.39;100330.53;5016648;28;45438;-60
2023/03/06 09:52:45;;;;;;;;;39.80;32.40;;;;;7.31;57.37;100323.28;5014421;28;45584;-61
2023/03/06 09:55:11;;;;;;;;;34.60;28.20;;;;;7.42;57.06;100324.59;5000708;28;46794;-61
2023/03/06 09:57:43;;;;;;;;;36.80;27.40;;;;;7.47;57.11;100324.81;5006337;28;45804;-60
2023/03/06 10:00:14;;;;;;;;;42.60;29.80;;;;;7.46;57.07;100320.38;5012842;28;45438;-61
2023/03/06 10:02:43;;;;;;;;;38.60;32.60;;;;;7.51;56.16;100319.78;5030212;28;45596;-65
2023/03/06 10:05:14;;;;;;;;;17.20;12.80;;;;;7.63;55.87;100320.88;5014340;28;45454;-59
2023/03/06 10:08:02;;;;;;;;;35.20;32.80;;;;;7.81;55.85;100327.69;4976607;28;45535;-61
2023/03/06 10:10:52;;;;;;;;;37.40;32.40;;;;;7.88;55.83;100309.44;5013972;28;45947;-60
2023/03/06 10:13:21;;;;;;;;;29.40;26.40;;;;;8.10;54.97;100314.75;4996793;28;45447;-60
2023/03/06 10:15:46;;;;;;;;;33.00;25.40;;;;;8.23;53.63;100305.75;4996074;28;46616;-61
2023/03/06 10:18:12;;;;;;;;;39.25;30.75;;;;;8.34;52.48;100305.16;5013021;28;45456;-60
2023/03/06 10:21:01;;;;;;;;;40.25;34.50;;;;;8.47;51.97;100309.78;5012065;28;45565;-62
2023/03/06 10:23:41;;;;;;;;;16.00;16.00;;;;;8.30;51.46;100268.34;5011390;28;45461;-62
2023/03/06 10:26:16;;;;;;;;;30.80;24.40;;;;;8.47;51.33;100301.59;5010519;28;46480;-61
2023/03/06 10:28:46;;;;;;;;;32.60;25.40;;;;;8.57;51.17;100305.81;5012261;28;45529;-62
2023/03/06 10:31:17;;;;;;;;;30.80;29.40;;;;;8.54;51.35;100283.31;4996199;28;45457;-61
2023/03/06 10:33:58;;;;;;;;;22.40;21.00;;;;;8.64;50.83;100303.97;4985976;28;45586;-62
2023/03/06 10:36:28;;;;;;;;;19.60;17.80;;;;;8.81;48.34;100297.00;5013739;28;46668;-62
2023/03/06 10:38:55;;;;;;;;;30.20;23.60;;;;;8.94;47.66;100295.31;5012951;28;45421;-62
2023/03/06 10:41:31;;;;;;;;;27.00;22.60;;;;;8.84;48.42;100279.31;5014135;28;45232;-62
2023/03/06 10:43:59;;;;;;;;;22.60;19.00;;;;;8.88;46.62;100290.69;4994362;28;45717;-62
2023/03/06 10:46:29;;;;;;;;;19.60;18.20;;;;;8.97;46.39;100300.38;5004656;28;45625;-60
2023/03/06 10:49:02;;;;;;;;;17.80;17.20;;;;;8.99;46.62;100292.78;5013545;28;45312;-61
2023/03/06 10:51:28;;;;;;;;;22.80;17.00;;;;;8.90;46.36;100269.41;5013804;28;45434;-60
2023/03/06 10:53:55;;;;;;;;;17.40;16.60;;;;;8.91;46.91;100285.63;4996147;28;45684;-61
2023/03/06 10:56:30;;;;;;;;;23.20;22.20;;;;;9.03;47.87;100294.00;5013245;28;45318;-59
2023/03/06 10:59:16;;;;;;;;;27.00;23.00;;;;;8.62;47.13;100260.38;5006423;28;45514;-59
2023/03/06 11:01:49;;;;;;;;;26.80;21.80;;;;;8.57;47.94;100295.75;5012062;28;45388;-58
2023/03/06 11:04:27;;;;;;;;;28.60;25.20;;;;;8.47;48.40;100281.59;5012083;28;45657;-56
2023/03/06 11:07:13;;;;;;;;;37.20;27.00;;;;;8.43;48.43;100274.88;5010268;28;45858;-57
2023/03/06 11:09:39;;;;;;;;;23.40;21.80;;;;;8.45;48.03;100276.34;5010496;28;45307;-58
2023/03/06 11:12:27;;;;;;;;;26.20;21.60;;;;;8.25;48.06;100248.97;5013763;28;45597;-60
2023/03/06 11:15:05;;;;;;;;;22.00;19.00;;;;;8.51;47.46;100280.13;4995371;28;45454;-57
2023/03/06 11:17:31;;;;;;;;;17.80;17.00;;;;;8.31;45.76;100228.19;5011709;28;45887;-59